Skip Navigation LinksHome page > Tools > METAR decoder Skip Navigation Links

METAR decoder

Settings

METAR

Chicago O'Hare Intl, Chicago

For information only: do not use for flight planning or navigation.
Latest weather
Observation time Tuesday, July 29, 2014 8:51 AM CDT
Local time Tuesday, July 29, 2014 9:45 AM CDT
Flight conditions Visual Meteorological Conditions
Winds
Wind direction Northwest (320°)
Wind speed 9 mph
Visibility 10 mi.
Sky condition
Ceiling 9,000 ft. broken clouds
Cloud layer broken clouds 9,000 ft.
Cloud layer broken clouds 11,000 ft.
Temperature 69°F
Dewpoint 51°F
Altimeter 30.05 in.Hg
Derived measurements
Relative humidity 53%
Density altitude 689 ft.
Sea-level pressure 30.04 in.Hg
Remarks
Automated weather observing station with precipitation discriminator.
METAR KORD 291351Z 32008KT 10SM BKN090 BKN110 21/11 A3005 RMK AO2 SLP172 T02060106

InnerDrive.Weather 4.0.5294.0 Release CLR 4.0.30319.34014
Copyright ©2014 Inner Drive Technology. All rights reserved. Portions Copyright ©1986-2014 David Braverman.

Find weather

Site navigation


Skip Navigation Links

Place info

Page info

PayPal - The safer, easier way to pay online!

Return home.

Copyright ©2014 Inner Drive Technology. Purveyors of fine, hand-crafted computer software. Page printed 2014-07-29T14:45:53 UTC.